Terminal Aerodrome Forecast
Issued by NWS

Home | Current Version | Previous Version | Text Only | Print | Product List | Glossary On
Versions: 1 2 3 4 5 6 7 8 9 10 11 12 13 14 15 16 17 18 19 20 21 22 23
000
FTUS43 KDDC 011720
TAFGCK
TAF
KGCK 011720Z 0118/0218 19016G22KT P6SM FEW300
     FM012100 21014G24KT P6SM VCTS BKN080CB
     FM020100 01013G23KT P6SM SCT250=

USA.gov is the U.S. government's official web portal to all federal, state and local government web resources and services.